Terminal Aerodrome Forecast
Issued by NWS

Home | Current Version | Previous Version | Text Only | Print | Product List | Glossary On
Versions: 1 2 3 4 5 6 7 8 9 10 11 12 13 14 15 16 17 18 19 20 21 22
000
FTUS41 KPBZ 300537
TAFDUJ
TAF
KDUJ 300537Z 3006/0106 11006KT P6SM VCSH BKN040
     FM301000 15006KT 5SM BR OVC010
     FM301500 21010KT P6SM BKN025
     FM302000 22010G18KT P6SM VCTS BKN035CB
     FM010100 20005KT P6SM VCSH BKN100=

USA.gov is the U.S. government's official web portal to all federal, state and local government web resources and services.